sensor_id;sensor_type;location;lat;lon;timestamp;temperature;humidity
68691;DHT22;55675;49.588;8.640;2023-03-29T00:01:47;9.90;73.70
68691;DHT22;55675;49.588;8.640;2023-03-29T00:04:14;9.90;73.40
68691;DHT22;55675;49.588;8.640;2023-03-29T00:06:40;9.90;73.30
68691;DHT22;55675;49.588;8.640;2023-03-29T00:09:06;9.90;73.60
68691;DHT22;55675;49.588;8.640;2023-03-29T00:11:33;9.90;73.40
68691;DHT22;55675;49.588;8.640;2023-03-29T00:13:59;9.90;73.30
68691;DHT22;55675;49.588;8.640;2023-03-29T00:16:25;9.90;73.30
68691;DHT22;55675;49.588;8.640;2023-03-29T00:18:50;9.90;73.40
68691;DHT22;55675;49.588;8.640;2023-03-29T00:21:16;9.90;73.40
68691;DHT22;55675;49.588;8.640;2023-03-29T00:23:41;9.90;73.50
68691;DHT22;55675;49.588;8.640;2023-03-29T00:26:06;9.90;73.70
68691;DHT22;55675;49.588;8.640;2023-03-29T00:28:32;9.90;73.80
68691;DHT22;55675;49.588;8.640;2023-03-29T00:31:08;9.90;74.40
68691;DHT22;55675;49.588;8.640;2023-03-29T00:33:34;9.90;73.80
68691;DHT22;55675;49.588;8.640;2023-03-29T00:36:00;10.00;73.50
68691;DHT22;55675;49.588;8.640;2023-03-29T00:38:26;9.90;73.60
68691;DHT22;55675;49.588;8.640;2023-03-29T00:40:51;9.90;73.30
68691;DHT22;55675;49.588;8.640;2023-03-29T00:43:17;9.90;73.40
68691;DHT22;55675;49.588;8.640;2023-03-29T00:45:42;9.90;73.50
68691;DHT22;55675;49.588;8.640;2023-03-29T00:48:09;9.90;73.50
68691;DHT22;55675;49.588;8.640;2023-03-29T00:50:36;9.90;73.50
68691;DHT22;55675;49.588;8.640;2023-03-29T00:53:06;9.90;73.30
68691;DHT22;55675;49.588;8.640;2023-03-29T00:55:34;9.90;73.30
68691;DHT22;55675;49.588;8.640;2023-03-29T00:58:01;10.00;73.40
68691;DHT22;55675;49.588;8.640;2023-03-29T01:00:28;10.00;73.50
68691;DHT22;55675;49.588;8.640;2023-03-29T01:02:56;9.90;74.10
68691;DHT22;55675;49.588;8.640;2023-03-29T01:05:30;9.90;73.80
68691;DHT22;55675;49.588;8.640;2023-03-29T01:07:59;10.00;73.90
68691;DHT22;55675;49.588;8.640;2023-03-29T01:10:28;9.90;74.00
68691;DHT22;55675;49.588;8.640;2023-03-29T01:13:00;9.90;74.00
68691;DHT22;55675;49.588;8.640;2023-03-29T01:15:26;9.90;74.00
68691;DHT22;55675;49.588;8.640;2023-03-29T01:17:53;9.90;74.20
68691;DHT22;55675;49.588;8.640;2023-03-29T01:20:25;9.90;74.00
68691;DHT22;55675;49.588;8.640;2023-03-29T01:25:30;9.90;74.10
68691;DHT22;55675;49.588;8.640;2023-03-29T01:30:31;10.00;73.80
68691;DHT22;55675;49.588;8.640;2023-03-29T01:33:05;10.00;74.00
68691;DHT22;55675;49.588;8.640;2023-03-29T01:35:37;10.00;74.00
68691;DHT22;55675;49.588;8.640;2023-03-29T01:38:26;10.00;73.90
68691;DHT22;55675;49.588;8.640;2023-03-29T01:40:50;10.00;74.10
68691;DHT22;55675;49.588;8.640;2023-03-29T01:43:23;10.00;74.20
68691;DHT22;55675;49.588;8.640;2023-03-29T01:48:30;10.00;74.20
68691;DHT22;55675;49.588;8.640;2023-03-29T01:51:01;10.00;74.40
68691;DHT22;55675;49.588;8.640;2023-03-29T01:53:29;10.00;74.20
68691;DHT22;55675;49.588;8.640;2023-03-29T01:55:58;10.00;74.30
68691;DHT22;55675;49.588;8.640;2023-03-29T01:58:28;10.00;74.60
68691;DHT22;55675;49.588;8.640;2023-03-29T02:00:55;9.90;74.50
68691;DHT22;55675;49.588;8.640;2023-03-29T02:03:23;9.90;74.90
68691;DHT22;55675;49.588;8.640;2023-03-29T02:05:49;9.90;75.00
68691;DHT22;55675;49.588;8.640;2023-03-29T02:08:15;9.90;75.10
68691;DHT22;55675;49.588;8.640;2023-03-29T02:10:42;9.90;75.30
68691;DHT22;55675;49.588;8.640;2023-03-29T02:13:07;9.90;75.30
68691;DHT22;55675;49.588;8.640;2023-03-29T02:15:33;9.90;75.40
68691;DHT22;55675;49.588;8.640;2023-03-29T02:17:58;9.90;75.70
68691;DHT22;55675;49.588;8.640;2023-03-29T02:20:45;9.90;75.90
68691;DHT22;55675;49.588;8.640;2023-03-29T02:25:40;9.90;75.90
68691;DHT22;55675;49.588;8.640;2023-03-29T02:28:06;9.90;75.70
68691;DHT22;55675;49.588;8.640;2023-03-29T02:33:29;9.90;75.70
68691;DHT22;55675;49.588;8.640;2023-03-29T02:36:01;9.90;75.70
68691;DHT22;55675;49.588;8.640;2023-03-29T02:38:28;9.90;75.90
68691;DHT22;55675;49.588;8.640;2023-03-29T02:40:55;9.90;76.10
68691;DHT22;55675;49.588;8.640;2023-03-29T02:43:22;9.80;76.00
68691;DHT22;55675;49.588;8.640;2023-03-29T02:45:48;9.80;76.30
68691;DHT22;55675;49.588;8.640;2023-03-29T02:48:16;9.80;76.60
68691;DHT22;55675;49.588;8.640;2023-03-29T02:50:43;9.80;76.40
68691;DHT22;55675;49.588;8.640;2023-03-29T02:53:11;9.80;76.60
68691;DHT22;55675;49.588;8.640;2023-03-29T02:55:39;9.80;76.60
68691;DHT22;55675;49.588;8.640;2023-03-29T02:58:04;9.80;76.60
68691;DHT22;55675;49.588;8.640;2023-03-29T03:00:36;9.70;76.60
68691;DHT22;55675;49.588;8.640;2023-03-29T03:03:05;9.70;77.80
68691;DHT22;55675;49.588;8.640;2023-03-29T03:05:32;9.60;78.10
68691;DHT22;55675;49.588;8.640;2023-03-29T03:07:57;9.50;77.90
68691;DHT22;55675;49.588;8.640;2023-03-29T03:10:23;9.50;77.80
68691;DHT22;55675;49.588;8.640;2023-03-29T03:12:48;9.50;77.80
68691;DHT22;55675;49.588;8.640;2023-03-29T03:15:14;9.40;79.00
68691;DHT22;55675;49.588;8.640;2023-03-29T03:17:39;9.20;79.40
68691;DHT22;55675;49.588;8.640;2023-03-29T03:20:08;9.10;79.00
68691;DHT22;55675;49.588;8.640;2023-03-29T03:22:39;9.10;78.90
68691;DHT22;55675;49.588;8.640;2023-03-29T03:25:04;9.10;79.00
68691;DHT22;55675;49.588;8.640;2023-03-29T03:27:30;9.10;80.60
68691;DHT22;55675;49.588;8.640;2023-03-29T03:29:58;9.10;80.60
68691;DHT22;55675;49.588;8.640;2023-03-29T03:32:23;9.00;81.10
68691;DHT22;55675;49.588;8.640;2023-03-29T03:34:49;9.00;80.40
68691;DHT22;55675;49.588;8.640;2023-03-29T03:37:14;9.00;80.20
68691;DHT22;55675;49.588;8.640;2023-03-29T03:39:40;9.00;80.20
68691;DHT22;55675;49.588;8.640;2023-03-29T03:42:05;8.90;80.20
68691;DHT22;55675;49.588;8.640;2023-03-29T03:44:31;8.90;80.50
68691;DHT22;55675;49.588;8.640;2023-03-29T03:46:56;8.90;80.50
68691;DHT22;55675;49.588;8.640;2023-03-29T03:49:22;8.90;80.60
68691;DHT22;55675;49.588;8.640;2023-03-29T03:51:47;9.00;80.70
68691;DHT22;55675;49.588;8.640;2023-03-29T03:54:13;9.00;80.50
68691;DHT22;55675;49.588;8.640;2023-03-29T03:56:38;9.00;80.60
68691;DHT22;55675;49.588;8.640;2023-03-29T03:59:04;9.10;80.80
68691;DHT22;55675;49.588;8.640;2023-03-29T04:01:29;9.10;80.70
68691;DHT22;55675;49.588;8.640;2023-03-29T04:03:55;9.20;80.80
68691;DHT22;55675;49.588;8.640;2023-03-29T04:06:20;9.20;80.70
68691;DHT22;55675;49.588;8.640;2023-03-29T04:08:46;9.20;80.70
68691;DHT22;55675;49.588;8.640;2023-03-29T04:11:12;9.30;80.80
68691;DHT22;55675;49.588;8.640;2023-03-29T04:13:38;9.30;80.80
68691;DHT22;55675;49.588;8.640;2023-03-29T04:16:03;9.30;80.70
68691;DHT22;55675;49.588;8.640;2023-03-29T04:18:29;9.30;80.70
68691;DHT22;55675;49.588;8.640;2023-03-29T04:20:54;9.30;80.70
68691;DHT22;55675;49.588;8.640;2023-03-29T04:23:20;9.30;80.80
68691;DHT22;55675;49.588;8.640;2023-03-29T04:25:46;9.40;81.00
68691;DHT22;55675;49.588;8.640;2023-03-29T04:28:11;9.40;80.80
68691;DHT22;55675;49.588;8.640;2023-03-29T04:30:37;9.40;81.00
68691;DHT22;55675;49.588;8.640;2023-03-29T04:33:02;9.40;81.10
68691;DHT22;55675;49.588;8.640;2023-03-29T04:35:28;9.30;81.10
68691;DHT22;55675;49.588;8.640;2023-03-29T04:37:54;9.30;81.20
68691;DHT22;55675;49.588;8.640;2023-03-29T04:40:19;9.30;81.20
68691;DHT22;55675;49.588;8.640;2023-03-29T04:42:45;9.30;81.10
68691;DHT22;55675;49.588;8.640;2023-03-29T04:45:14;9.40;81.20
68691;DHT22;55675;49.588;8.640;2023-03-29T04:47:42;9.40;81.10
68691;DHT22;55675;49.588;8.640;2023-03-29T04:50:09;9.50;81.00
68691;DHT22;55675;49.588;8.640;2023-03-29T04:52:35;9.50;81.00
68691;DHT22;55675;49.588;8.640;2023-03-29T04:55:01;9.50;80.90
68691;DHT22;55675;49.588;8.640;2023-03-29T04:57:27;9.60;80.90
68691;DHT22;55675;49.588;8.640;2023-03-29T04:59:52;9.60;80.90
68691;DHT22;55675;49.588;8.640;2023-03-29T05:02:18;9.50;80.90
68691;DHT22;55675;49.588;8.640;2023-03-29T05:04:43;9.50;80.80
68691;DHT22;55675;49.588;8.640;2023-03-29T05:07:09;9.50;80.70
68691;DHT22;55675;49.588;8.640;2023-03-29T05:09:35;9.60;81.00
68691;DHT22;55675;49.588;8.640;2023-03-29T05:12:01;9.60;80.90
68691;DHT22;55675;49.588;8.640;2023-03-29T05:14:27;9.60;80.90
68691;DHT22;55675;49.588;8.640;2023-03-29T05:16:52;9.70;81.10
68691;DHT22;55675;49.588;8.640;2023-03-29T05:19:18;9.70;81.10
68691;DHT22;55675;49.588;8.640;2023-03-29T05:21:46;9.70;81.20
68691;DHT22;55675;49.588;8.640;2023-03-29T05:24:11;9.70;81.20
68691;DHT22;55675;49.588;8.640;2023-03-29T05:26:37;9.70;81.30
68691;DHT22;55675;49.588;8.640;2023-03-29T05:29:04;9.80;81.10
68691;DHT22;55675;49.588;8.640;2023-03-29T05:31:29;9.80;81.00
68691;DHT22;55675;49.588;8.640;2023-03-29T05:33:56;9.90;81.10
68691;DHT22;55675;49.588;8.640;2023-03-29T05:36:22;9.90;80.90
68691;DHT22;55675;49.588;8.640;2023-03-29T05:38:48;9.90;80.90
68691;DHT22;55675;49.588;8.640;2023-03-29T05:41:14;9.90;80.70
68691;DHT22;55675;49.588;8.640;2023-03-29T05:43:40;9.90;80.50
68691;DHT22;55675;49.588;8.640;2023-03-29T05:46:06;10.00;80.50
68691;DHT22;55675;49.588;8.640;2023-03-29T05:48:31;10.00;80.40
68691;DHT22;55675;49.588;8.640;2023-03-29T05:50:57;10.10;80.30
68691;DHT22;55675;49.588;8.640;2023-03-29T05:53:23;10.10;80.30
68691;DHT22;55675;49.588;8.640;2023-03-29T05:55:49;10.10;80.20
68691;DHT22;55675;49.588;8.640;2023-03-29T05:58:15;10.10;80.00
68691;DHT22;55675;49.588;8.640;2023-03-29T06:00:44;10.10;80.10
68691;DHT22;55675;49.588;8.640;2023-03-29T06:03:13;10.10;79.90
68691;DHT22;55675;49.588;8.640;2023-03-29T06:05:41;10.10;79.90
68691;DHT22;55675;49.588;8.640;2023-03-29T06:08:06;10.10;79.90
68691;DHT22;55675;49.588;8.640;2023-03-29T06:10:33;10.10;79.70
68691;DHT22;55675;49.588;8.640;2023-03-29T06:13:00;10.10;79.30
68691;DHT22;55675;49.588;8.640;2023-03-29T06:15:26;10.10;79.30
68691;DHT22;55675;49.588;8.640;2023-03-29T06:17:51;10.20;79.30
68691;DHT22;55675;49.588;8.640;2023-03-29T06:20:16;10.20;79.10
68691;DHT22;55675;49.588;8.640;2023-03-29T06:22:42;10.30;79.10
68691;DHT22;55675;49.588;8.640;2023-03-29T06:25:08;10.40;78.90
68691;DHT22;55675;49.588;8.640;2023-03-29T06:27:35;10.40;78.70
68691;DHT22;55675;49.588;8.640;2023-03-29T06:30:01;10.50;78.60
68691;DHT22;55675;49.588;8.640;2023-03-29T06:32:27;10.60;78.30
68691;DHT22;55675;49.588;8.640;2023-03-29T06:34:52;10.60;78.30
68691;DHT22;55675;49.588;8.640;2023-03-29T06:37:18;10.70;78.30
68691;DHT22;55675;49.588;8.640;2023-03-29T06:39:44;10.80;78.40
68691;DHT22;55675;49.588;8.640;2023-03-29T06:42:09;10.90;78.50
68691;DHT22;55675;49.588;8.640;2023-03-29T06:44:35;11.00;78.20
68691;DHT22;55675;49.588;8.640;2023-03-29T06:47:01;11.00;78.00
68691;DHT22;55675;49.588;8.640;2023-03-29T06:49:28;11.10;78.10
68691;DHT22;55675;49.588;8.640;2023-03-29T06:51:53;11.10;78.00
68691;DHT22;55675;49.588;8.640;2023-03-29T06:54:19;11.20;77.80
68691;DHT22;55675;49.588;8.640;2023-03-29T06:56:44;11.30;77.50
68691;DHT22;55675;49.588;8.640;2023-03-29T06:59:11;11.40;76.70
68691;DHT22;55675;49.588;8.640;2023-03-29T07:01:37;11.50;76.50
68691;DHT22;55675;49.588;8.640;2023-03-29T07:04:03;11.60;76.20
68691;DHT22;55675;49.588;8.640;2023-03-29T07:06:32;11.70;75.60
68691;DHT22;55675;49.588;8.640;2023-03-29T07:08:58;11.70;74.80
68691;DHT22;55675;49.588;8.640;2023-03-29T07:11:25;11.80;74.30
68691;DHT22;55675;49.588;8.640;2023-03-29T07:13:51;11.80;74.40
68691;DHT22;55675;49.588;8.640;2023-03-29T07:16:16;11.90;73.50
68691;DHT22;55675;49.588;8.640;2023-03-29T07:18:43;12.00;73.70
68691;DHT22;55675;49.588;8.640;2023-03-29T07:21:09;12.10;72.30
68691;DHT22;55675;49.588;8.640;2023-03-29T07:23:36;12.10;72.10
68691;DHT22;55675;49.588;8.640;2023-03-29T07:26:02;12.30;72.20
68691;DHT22;55675;49.588;8.640;2023-03-29T07:28:29;12.40;72.30
68691;DHT22;55675;49.588;8.640;2023-03-29T07:31:03;12.50;72.50
68691;DHT22;55675;49.588;8.640;2023-03-29T07:33:31;12.70;71.50
68691;DHT22;55675;49.588;8.640;2023-03-29T07:35:56;12.80;71.40
68691;DHT22;55675;49.588;8.640;2023-03-29T07:38:23;12.90;71.30
68691;DHT22;55675;49.588;8.640;2023-03-29T07:40:49;13.00;70.90
68691;DHT22;55675;49.588;8.640;2023-03-29T07:43:15;13.10;69.60
68691;DHT22;55675;49.588;8.640;2023-03-29T07:45:42;13.20;70.00
68691;DHT22;55675;49.588;8.640;2023-03-29T07:48:09;13.30;69.90
68691;DHT22;55675;49.588;8.640;2023-03-29T07:50:34;13.30;68.60
68691;DHT22;55675;49.588;8.640;2023-03-29T07:53:00;13.40;68.70
68691;DHT22;55675;49.588;8.640;2023-03-29T07:55:27;13.40;68.80
68691;DHT22;55675;49.588;8.640;2023-03-29T07:57:53;13.50;69.00
68691;DHT22;55675;49.588;8.640;2023-03-29T08:00:19;13.60;68.30
68691;DHT22;55675;49.588;8.640;2023-03-29T08:02:45;13.60;68.30
68691;DHT22;55675;49.588;8.640;2023-03-29T08:05:11;13.80;68.30
68691;DHT22;55675;49.588;8.640;2023-03-29T08:07:38;13.90;68.30
68691;DHT22;55675;49.588;8.640;2023-03-29T08:10:05;14.00;68.60
68691;DHT22;55675;49.588;8.640;2023-03-29T08:12:31;14.10;67.10
68691;DHT22;55675;49.588;8.640;2023-03-29T08:14:56;14.10;65.80
68691;DHT22;55675;49.588;8.640;2023-03-29T08:17:21;14.20;65.70
68691;DHT22;55675;49.588;8.640;2023-03-29T08:19:47;14.30;65.30
68691;DHT22;55675;49.588;8.640;2023-03-29T08:22:12;14.30;64.40
68691;DHT22;55675;49.588;8.640;2023-03-29T08:24:38;14.30;64.70
68691;DHT22;55675;49.588;8.640;2023-03-29T08:27:04;14.40;64.80
68691;DHT22;55675;49.588;8.640;2023-03-29T08:29:29;14.50;64.20
68691;DHT22;55675;49.588;8.640;2023-03-29T08:31:56;14.50;64.00
68691;DHT22;55675;49.588;8.640;2023-03-29T08:34:21;14.60;64.70
68691;DHT22;55675;49.588;8.640;2023-03-29T08:36:47;14.70;64.00
68691;DHT22;55675;49.588;8.640;2023-03-29T08:39:12;14.70;63.00
68691;DHT22;55675;49.588;8.640;2023-03-29T08:41:53;14.80;63.50
68691;DHT22;55675;49.588;8.640;2023-03-29T08:44:28;14.90;63.90
68691;DHT22;55675;49.588;8.640;2023-03-29T08:47:14;15.00;63.70
68691;DHT22;55675;49.588;8.640;2023-03-29T08:49:43;15.20;63.50
68691;DHT22;55675;49.588;8.640;2023-03-29T08:52:16;15.20;63.00
68691;DHT22;55675;49.588;8.640;2023-03-29T08:54:44;15.30;63.20
68691;DHT22;55675;49.588;8.640;2023-03-29T08:57:32;15.40;62.90
68691;DHT22;55675;49.588;8.640;2023-03-29T08:59:58;15.50;62.30
68691;DHT22;55675;49.588;8.640;2023-03-29T09:02:25;15.40;61.50
68691;DHT22;55675;49.588;8.640;2023-03-29T09:04:52;15.50;61.50
68691;DHT22;55675;49.588;8.640;2023-03-29T09:07:21;15.50;62.10
68691;DHT22;55675;49.588;8.640;2023-03-29T09:09:47;15.50;61.20
68691;DHT22;55675;49.588;8.640;2023-03-29T09:24:59;15.80;61.60
68691;DHT22;55675;49.588;8.640;2023-03-29T09:27:35;15.90;61.40
68691;DHT22;55675;49.588;8.640;2023-03-29T09:32:37;16.00;61.20
68691;DHT22;55675;49.588;8.640;2023-03-29T09:37:31;16.10;59.80
68691;DHT22;55675;49.588;8.640;2023-03-29T09:39:57;16.10;59.50
68691;DHT22;55675;49.588;8.640;2023-03-29T09:42:24;16.10;58.90
68691;DHT22;55675;49.588;8.640;2023-03-29T09:44:53;16.00;58.50
68691;DHT22;55675;49.588;8.640;2023-03-29T09:47:27;16.00;59.70
68691;DHT22;55675;49.588;8.640;2023-03-29T09:49:55;16.00;60.40
68691;DHT22;55675;49.588;8.640;2023-03-29T09:52:21;16.00;59.20
68691;DHT22;55675;49.588;8.640;2023-03-29T09:54:47;15.90;58.30
68691;DHT22;55675;49.588;8.640;2023-03-29T09:57:16;16.00;59.10
68691;DHT22;55675;49.588;8.640;2023-03-29T09:59:43;16.00;59.30
68691;DHT22;55675;49.588;8.640;2023-03-29T10:02:10;16.20;59.80
68691;DHT22;55675;49.588;8.640;2023-03-29T10:04:37;16.20;59.00
68691;DHT22;55675;49.588;8.640;2023-03-29T10:07:04;16.40;58.10
68691;DHT22;55675;49.588;8.640;2023-03-29T10:09:30;16.50;58.30
68691;DHT22;55675;49.588;8.640;2023-03-29T10:11:57;16.60;58.40
68691;DHT22;55675;49.588;8.640;2023-03-29T10:16:58;16.90;57.80
68691;DHT22;55675;49.588;8.640;2023-03-29T10:19:30;16.90;57.20
68691;DHT22;55675;49.588;8.640;2023-03-29T10:22:00;17.10;57.40
68691;DHT22;55675;49.588;8.640;2023-03-29T10:24:26;17.30;57.60
68691;DHT22;55675;49.588;8.640;2023-03-29T10:27:02;17.50;56.40
68691;DHT22;55675;49.588;8.640;2023-03-29T10:29:33;17.80;56.70
68691;DHT22;55675;49.588;8.640;2023-03-29T10:32:00;18.00;55.60
68691;DHT22;55675;49.588;8.640;2023-03-29T10:34:26;18.10;56.10
68691;DHT22;55675;49.588;8.640;2023-03-29T10:36:54;18.30;55.90
68691;DHT22;55675;49.588;8.640;2023-03-29T10:39:21;18.40;55.30
68691;DHT22;55675;49.588;8.640;2023-03-29T10:41:49;18.60;55.50
68691;DHT22;55675;49.588;8.640;2023-03-29T10:44:34;18.80;55.70
68691;DHT22;55675;49.588;8.640;2023-03-29T10:47:16;18.90;54.30
68691;DHT22;55675;49.588;8.640;2023-03-29T10:49:45;18.90;53.20
68691;DHT22;55675;49.588;8.640;2023-03-29T10:52:13;19.00;53.50
68691;DHT22;55675;49.588;8.640;2023-03-29T10:54:39;19.20;53.90
68691;DHT22;55675;49.588;8.640;2023-03-29T10:57:05;19.30;53.30
68691;DHT22;55675;49.588;8.640;2023-03-29T10:59:36;19.50;52.90
68691;DHT22;55675;49.588;8.640;2023-03-29T11:07:25;19.10;52.80
68691;DHT22;55675;49.588;8.640;2023-03-29T11:12:30;18.80;54.40
68691;DHT22;55675;49.588;8.640;2023-03-29T11:36:19;19.50;50.50
68691;DHT22;55675;49.588;8.640;2023-03-29T11:41:18;19.80;51.00
68691;DHT22;55675;49.588;8.640;2023-03-29T11:43:53;19.90;50.80
68691;DHT22;55675;49.588;8.640;2023-03-29T11:46:25;19.90;50.80
68691;DHT22;55675;49.588;8.640;2023-03-29T11:48:54;20.00;49.60
68691;DHT22;55675;49.588;8.640;2023-03-29T11:51:24;19.90;49.00
68691;DHT22;55675;49.588;8.640;2023-03-29T11:54:05;19.90;49.50
68691;DHT22;55675;49.588;8.640;2023-03-29T11:57:06;20.00;49.50
68691;DHT22;55675;49.588;8.640;2023-03-29T11:59:25;20.10;48.60
68691;DHT22;55675;49.588;8.640;2023-03-29T12:01:53;20.30;48.10
68691;DHT22;55675;49.588;8.640;2023-03-29T12:04:25;20.20;47.60
68691;DHT22;55675;49.588;8.640;2023-03-29T12:09:55;20.20;48.00
68691;DHT22;55675;49.588;8.640;2023-03-29T12:12:24;20.40;47.60
68691;DHT22;55675;49.588;8.640;2023-03-29T12:15:08;20.70;47.50
68691;DHT22;55675;49.588;8.640;2023-03-29T12:17:41;21.10;47.90
68691;DHT22;55675;49.588;8.640;2023-03-29T12:20:18;21.50;46.20
68691;DHT22;55675;49.588;8.640;2023-03-29T12:22:45;21.80;44.30
68691;DHT22;55675;49.588;8.640;2023-03-29T12:25:14;21.90;45.00
68691;DHT22;55675;49.588;8.640;2023-03-29T12:33:09;21.70;44.30
68691;DHT22;55675;49.588;8.640;2023-03-29T12:36:01;21.80;45.30
68691;DHT22;55675;49.588;8.640;2023-03-29T12:38:27;22.10;44.00
68691;DHT22;55675;49.588;8.640;2023-03-29T12:40:56;22.30;44.20
68691;DHT22;55675;49.588;8.640;2023-03-29T12:43:25;22.50;43.60
68691;DHT22;55675;49.588;8.640;2023-03-29T12:45:53;22.70;44.20
68691;DHT22;55675;49.588;8.640;2023-03-29T12:48:19;22.80;41.80
68691;DHT22;55675;49.588;8.640;2023-03-29T12:50:50;22.90;43.00
68691;DHT22;55675;49.588;8.640;2023-03-29T12:53:17;23.10;42.70
68691;DHT22;55675;49.588;8.640;2023-03-29T12:58:23;23.50;42.80
68691;DHT22;55675;49.588;8.640;2023-03-29T13:00:55;23.50;43.00
68691;DHT22;55675;49.588;8.640;2023-03-29T13:03:33;23.50;42.10
68691;DHT22;55675;49.588;8.640;2023-03-29T13:06:03;23.30;41.90
68691;DHT22;55675;49.588;8.640;2023-03-29T13:08:42;23.20;42.50
68691;DHT22;55675;49.588;8.640;2023-03-29T13:11:11;23.20;41.40
68691;DHT22;55675;49.588;8.640;2023-03-29T13:13:47;23.20;42.00
68691;DHT22;55675;49.588;8.640;2023-03-29T13:16:14;23.50;41.90
68691;DHT22;55675;49.588;8.640;2023-03-29T13:21:15;24.10;41.60
68691;DHT22;55675;49.588;8.640;2023-03-29T13:23:51;24.20;39.30
68691;DHT22;55675;49.588;8.640;2023-03-29T13:26:43;24.10;39.30
68691;DHT22;55675;49.588;8.640;2023-03-29T13:32:24;24.00;40.60
68691;DHT22;55675;49.588;8.640;2023-03-29T13:35:02;24.20;39.00
68691;DHT22;55675;49.588;8.640;2023-03-29T13:37:38;24.20;39.40
68691;DHT22;55675;49.588;8.640;2023-03-29T13:40:29;24.10;39.60
68691;DHT22;55675;49.588;8.640;2023-03-29T13:42:58;24.20;39.30
68691;DHT22;55675;49.588;8.640;2023-03-29T13:45:27;25.10;37.70
68691;DHT22;55675;49.588;8.640;2023-03-29T13:51:42;29.20;33.40
68691;DHT22;55675;49.588;8.640;2023-03-29T13:53:46;30.50;30.90
68691;DHT22;55675;49.588;8.640;2023-03-29T13:56:23;30.80;30.10
68691;DHT22;55675;49.588;8.640;2023-03-29T13:59:09;30.50;28.50
68691;DHT22;55675;49.588;8.640;2023-03-29T14:01:47;29.90;29.10
68691;DHT22;55675;49.588;8.640;2023-03-29T14:04:23;29.10;29.90
68691;DHT22;55675;49.588;8.640;2023-03-29T14:06:52;29.50;30.70
68691;DHT22;55675;49.588;8.640;2023-03-29T14:09:23;31.10;28.80
68691;DHT22;55675;49.588;8.640;2023-03-29T14:11:53;30.60;28.40
68691;DHT22;55675;49.588;8.640;2023-03-29T14:14:27;29.90;28.50
68691;DHT22;55675;49.588;8.640;2023-03-29T14:16:54;30.90;29.10
68691;DHT22;55675;49.588;8.640;2023-03-29T14:21:52;35.90;25.20
68691;DHT22;55675;49.588;8.640;2023-03-29T14:24:25;36.90;22.70
68691;DHT22;55675;49.588;8.640;2023-03-29T14:26:52;36.70;23.50
68691;DHT22;55675;49.588;8.640;2023-03-29T14:29:18;36.90;22.30
68691;DHT22;55675;49.588;8.640;2023-03-29T14:31:43;35.70;22.40
68691;DHT22;55675;49.588;8.640;2023-03-29T14:34:14;33.60;23.70
68691;DHT22;55675;49.588;8.640;2023-03-29T14:36:43;31.70;25.60
68691;DHT22;55675;49.588;8.640;2023-03-29T14:39:16;29.90;27.90
68691;DHT22;55675;49.588;8.640;2023-03-29T14:41:45;28.40;29.00
68691;DHT22;55675;49.588;8.640;2023-03-29T14:44:11;27.20;31.20
68691;DHT22;55675;49.588;8.640;2023-03-29T14:46:37;26.00;33.70
68691;DHT22;55675;49.588;8.640;2023-03-29T14:49:02;24.90;35.60
68691;DHT22;55675;49.588;8.640;2023-03-29T14:51:29;24.00;37.70
68691;DHT22;55675;49.588;8.640;2023-03-29T14:53:59;23.30;38.60
68691;DHT22;55675;49.588;8.640;2023-03-29T14:56:25;22.80;39.90
68691;DHT22;55675;49.588;8.640;2023-03-29T14:58:55;22.40;42.40
68691;DHT22;55675;49.588;8.640;2023-03-29T15:01:21;22.10;43.40
68691;DHT22;55675;49.588;8.640;2023-03-29T15:06:16;21.60;44.50
68691;DHT22;55675;49.588;8.640;2023-03-29T15:08:42;21.50;45.20
68691;DHT22;55675;49.588;8.640;2023-03-29T15:11:18;21.50;45.60
68691;DHT22;55675;49.588;8.640;2023-03-29T15:13:44;21.50;46.60
68691;DHT22;55675;49.588;8.640;2023-03-29T15:16:14;21.90;46.30
68691;DHT22;55675;49.588;8.640;2023-03-29T15:18:40;22.30;45.60
68691;DHT22;55675;49.588;8.640;2023-03-29T15:21:07;22.80;44.70
68691;DHT22;55675;49.588;8.640;2023-03-29T15:23:46;23.00;44.20
68691;DHT22;55675;49.588;8.640;2023-03-29T15:28:48;22.50;44.10
68691;DHT22;55675;49.588;8.640;2023-03-29T15:31:17;22.20;44.70
68691;DHT22;55675;49.588;8.640;2023-03-29T15:33:43;21.80;45.90
68691;DHT22;55675;49.588;8.640;2023-03-29T15:36:10;21.50;46.60
68691;DHT22;55675;49.588;8.640;2023-03-29T15:38:37;21.30;48.00
68691;DHT22;55675;49.588;8.640;2023-03-29T15:41:02;20.90;47.60
68691;DHT22;55675;49.588;8.640;2023-03-29T15:43:28;20.60;48.20
68691;DHT22;55675;49.588;8.640;2023-03-29T15:45:55;20.40;49.00
68691;DHT22;55675;49.588;8.640;2023-03-29T15:48:25;20.20;49.40
68691;DHT22;55675;49.588;8.640;2023-03-29T15:50:51;20.00;50.90
68691;DHT22;55675;49.588;8.640;2023-03-29T15:53:17;19.90;51.30
68691;DHT22;55675;49.588;8.640;2023-03-29T15:55:46;19.80;52.10
68691;DHT22;55675;49.588;8.640;2023-03-29T15:58:16;19.70;51.80
68691;DHT22;55675;49.588;8.640;2023-03-29T16:00:44;19.70;52.30
68691;DHT22;55675;49.588;8.640;2023-03-29T16:03:12;19.50;52.60
68691;DHT22;55675;49.588;8.640;2023-03-29T16:05:41;19.40;53.20
68691;DHT22;55675;49.588;8.640;2023-03-29T16:08:08;19.30;54.30
68691;DHT22;55675;49.588;8.640;2023-03-29T16:10:34;19.20;55.30
68691;DHT22;55675;49.588;8.640;2023-03-29T16:13:00;19.10;55.30
68691;DHT22;55675;49.588;8.640;2023-03-29T16:15:26;19.10;56.00
68691;DHT22;55675;49.588;8.640;2023-03-29T16:17:51;19.00;56.10
68691;DHT22;55675;49.588;8.640;2023-03-29T16:20:17;18.90;56.40
68691;DHT22;55675;49.588;8.640;2023-03-29T16:22:45;18.90;57.70
68691;DHT22;55675;49.588;8.640;2023-03-29T16:25:11;18.90;57.30
68691;DHT22;55675;49.588;8.640;2023-03-29T16:27:37;18.80;58.40
68691;DHT22;55675;49.588;8.640;2023-03-29T16:30:03;18.80;58.20
68691;DHT22;55675;49.588;8.640;2023-03-29T16:32:29;18.80;59.20
68691;DHT22;55675;49.588;8.640;2023-03-29T16:34:54;18.80;59.60
68691;DHT22;55675;49.588;8.640;2023-03-29T16:37:22;18.70;59.60
68691;DHT22;55675;49.588;8.640;2023-03-29T16:39:48;18.70;61.00
68691;DHT22;55675;49.588;8.640;2023-03-29T16:42:13;18.60;61.00
68691;DHT22;55675;49.588;8.640;2023-03-29T16:44:39;18.50;61.70
68691;DHT22;55675;49.588;8.640;2023-03-29T16:47:04;18.50;61.90
68691;DHT22;55675;49.588;8.640;2023-03-29T16:49:30;18.40;61.20
68691;DHT22;55675;49.588;8.640;2023-03-29T16:51:55;18.40;61.10
68691;DHT22;55675;49.588;8.640;2023-03-29T16:54:21;18.30;60.90
68691;DHT22;55675;49.588;8.640;2023-03-29T16:56:49;18.30;61.00
68691;DHT22;55675;49.588;8.640;2023-03-29T16:59:15;18.20;61.20
68691;DHT22;55675;49.588;8.640;2023-03-29T17:01:40;18.20;60.70
68691;DHT22;55675;49.588;8.640;2023-03-29T17:04:06;18.20;61.60
68691;DHT22;55675;49.588;8.640;2023-03-29T17:06:32;18.10;62.00
68691;DHT22;55675;49.588;8.640;2023-03-29T17:08:57;18.10;62.00
68691;DHT22;55675;49.588;8.640;2023-03-29T17:11:23;18.00;62.30
68691;DHT22;55675;49.588;8.640;2023-03-29T17:13:50;17.90;63.00